North Buena Vista, IA (52066)

7:02 AM CST on January 16, 2017 (GMT -0600)
Rolling Farm | | Change Station
Active Advisory: Winter Weather Advisory

Elev 1201 ft 42.61 °N, 91.15 °W | Updated 14 seconds ago

Ice Pellets
Ice Pellets
29.1 °F
Feels Like 25 °F
N
4.0
Wind Variable Wind from SE

Today
High -- | Low -- °F
--% Chance of Precip.
Yesterday
High -- | Low -- °F
Precip. -- in
Pressure 30.23 in
Visibility 3.0 miles
Clouds Scattered Clouds 500 ft
Mostly Cloudy 3000 ft
Overcast 3500 ft
Windchill 25 °F
Dew Point 27 °F
Humidity 95%
Rainfall 0.00 in
Snow Depth Not available.
7:30 AM 4:57 PM
Waning Gibbous, 81% visible
METAR KDBQ 161253Z 12009KT 3SM UP BR SCT005 BKN030 OVC035 M01/M02 A3018 RMK AO2 UPB19FZRAE19 SLP235 P0003 I1001 T10111022
Pressure 30.23 in
Visibility 3.0 miles
Clouds Scattered Clouds 500 ft
Mostly Cloudy 3000 ft
Overcast 3500 ft
Windchill 25 °F
Dew Point 27 °F
Humidity 95%
Rainfall 0.00 in
Snow Depth Not available.
7:30 AM 4:57 PM
Waning Gibbous, 81% visible
METAR KDBQ 161253Z 12009KT 3SM UP BR SCT005 BKN030 OVC035 M01/M02 A3018 RMK AO2 UPB19FZRAE19 SLP235 P0003 I1001 T10111022

Get Your Daily Forecast Email!

Thanks for signing up!

Be on the lookout for a verification email in your inbox.

You'll start receiving the daily forecast at 8 AM.

×

10-Day Weather Forecast

Almanac

Astronomy

Jan. 16, 2017 Rise Set
Actual Time
Civil Twilight
Nautical Twilight
Astronomical Twilight
Moon
Length of Visible Light
Length of Day
Tomorrow will be .
, % of the Moon is Illuminated

Today's Extremes

State Highs State Lows

Community

WunderPhotos

Upload Photos

1,962,540 photos uploaded!

WunderBlog® & News

Nearby

Air Quality

  Air Quality AQ Index Pollutant
Not available.

Snow Depth

Station Depth Elevation

Earthquake Activity

City Distance Mag. Time & Date
Minimum magnitude displayed is 2.5.

Coastal Water Temperatures

Place Temperature

Stations

Nearby Weather Stations

Station Location Temp. Windchill Dew Point Humidity Wind Precip. Elev Updated Type
                   

Watches & Warnings

Winter Weather Advisory
Issued: 3:42 AM CST Jan. 16, 2017 – National Weather Service

... Winter Weather Advisory remains in effect until noon CST
Tuesday...

* wintry mix... diminishing in coverage late tonight into Tuesday
morning. The heaviest precipitation will occur this afternoon
and evening.

* Total snow and sleet accumulation of less than 1/2 inch and ice
accumulations of up to 2/10 of an inch.

* The ice will result in difficult travel conditions... including
during the morning and evening commutes.

Precautionary/preparedness actions...

A Winter Weather Advisory means that periods of snow... sleet or
freezing rain will cause travel difficulties. Be prepared for
slippery roads and limited visibilities... and use caution while
driving. The latest Road conditions for the state you are calling
from can be obtained by calling 5 1 1.